Time,TemperatureF,DewpointF,PressureIn,WindDirection,WindDirectionDegrees,WindSpeedMPH,WindSpeedGustMPH,Humidity,HourlyPrecipIn,Conditions,Clouds,dailyrainin,SoftwareType,DateUTC
2013-06-20 00:02:00,64.1,62.0,30.13,SE,127,0.0,0.0,93,0.00,,,0.00,Wunderground v.1.15,2013-06-20 04:02:00,
2013-06-20 00:04:00,64.2,62.1,30.13,SE,127,0.0,0.0,93,0.00,,,0.00,Wunderground v.1.15,2013-06-20 04:04:00,
2013-06-20 00:10:00,64.3,62.2,30.13,SE,127,0.0,0.0,93,0.00,,,0.00,Wunderground v.1.15,2013-06-20 04:10:00,
2013-06-20 00:12:00,64.3,62.2,30.13,SE,127,0.0,0.0,93,0.00,,,0.00,Wunderground v.1.15,2013-06-20 04:12:00,
2013-06-20 00:18:00,64.2,62.1,30.13,SE,127,0.0,0.0,93,0.00,,,0.00,Wunderground v.1.15,2013-06-20 04:18:00,
2013-06-20 00:24:00,64.0,61.6,30.13,SE,127,0.0,0.0,92,0.00,,,0.00,Wunderground v.1.15,2013-06-20 04:24:00,
2013-06-20 00:28:00,64.0,61.9,30.13,SE,127,0.0,0.0,93,0.00,,,0.00,Wunderground v.1.15,2013-06-20 04:28:00,
2013-06-20 00:34:00,63.8,61.7,30.13,SE,127,0.0,0.0,93,0.00,,,0.00,Wunderground v.1.15,2013-06-20 04:34:00,
2013-06-20 00:40:00,63.7,61.6,30.13,SE,127,0.0,0.0,93,0.00,,,0.00,Wunderground v.1.15,2013-06-20 04:40:00,
2013-06-20 00:46:00,63.6,61.5,30.13,SE,127,0.0,0.0,93,0.00,,,0.00,Wunderground v.1.15,2013-06-20 04:46:00,
2013-06-20 00:52:00,63.4,61.3,30.13,SE,127,0.0,0.0,93,0.00,,,0.00,Wunderground v.1.15,2013-06-20 04:52:00,
2013-06-20 00:56:00,63.4,61.6,30.13,SE,127,0.0,0.0,94,0.00,,,0.00,Wunderground v.1.15,2013-06-20 04:56:00,
2013-06-20 01:02:00,63.3,61.5,30.13,SE,127,0.0,0.0,94,0.00,,,0.00,Wunderground v.1.15,2013-06-20 05:02:00,
2013-06-20 01:08:00,63.2,61.4,30.13,SE,127,0.0,0.0,94,0.00,,,0.00,Wunderground v.1.15,2013-06-20 05:08:00,
2013-06-20 01:14:00,63.1,61.0,30.13,SE,127,0.0,0.0,93,0.00,,,0.00,Wunderground v.1.15,2013-06-20 05:14:00,
2013-06-20 01:20:00,62.9,60.8,30.13,SE,127,0.0,0.0,93,0.00,,,0.00,Wunderground v.1.15,2013-06-20 05:20:00,
2013-06-20 01:26:00,62.7,60.6,30.12,SE,127,0.0,0.0,93,0.00,,,0.00,Wunderground v.1.15,2013-06-20 05:26:00,
2013-06-20 01:32:00,62.5,60.4,30.13,SE,127,0.0,0.0,93,0.00,,,0.00,Wunderground v.1.15,2013-06-20 05:32:00,
2013-06-20 01:38:00,62.4,60.7,30.13,SE,127,0.0,0.0,94,0.00,,,0.00,Wunderground v.1.15,2013-06-20 05:38:00,
2013-06-20 01:44:00,62.3,60.6,30.13,SE,127,0.0,0.0,94,0.00,,,0.00,Wunderground v.1.15,2013-06-20 05:44:00,
2013-06-20 01:50:00,62.1,60.4,30.13,SE,127,0.0,0.0,94,0.00,,,0.00,Wunderground v.1.15,2013-06-20 05:50:00,
2013-06-20 01:56:00,61.8,60.1,30.13,SE,127,0.0,0.0,94,0.00,,,0.00,Wunderground v.1.15,2013-06-20 05:56:00,
2013-06-20 02:02:00,61.7,60.0,30.13,SE,127,0.0,0.0,94,0.00,,,0.00,Wunderground v.1.15,2013-06-20 06:02:00,
2013-06-20 02:08:00,61.6,59.9,30.13,SE,127,0.0,0.0,94,0.00,,,0.00,Wunderground v.1.15,2013-06-20 06:08:00,
2013-06-20 02:14:00,61.6,60.2,30.12,SE,127,0.0,0.0,95,0.00,,,0.00,Wunderground v.1.15,2013-06-20 06:14:00,
2013-06-20 02:20:00,61.5,60.1,30.13,SE,127,0.0,0.0,95,0.00,,,0.00,Wunderground v.1.15,2013-06-20 06:20:00,
2013-06-20 02:26:00,61.4,60.0,30.13,SE,127,0.0,0.0,95,0.00,,,0.00,Wunderground v.1.15,2013-06-20 06:26:00,
2013-06-20 02:32:00,61.4,60.0,30.13,SE,127,0.0,0.0,95,0.00,,,0.00,Wunderground v.1.15,2013-06-20 06:32:00,
2013-06-20 02:38:00,61.3,59.9,30.13,SE,127,0.0,0.0,95,0.00,,,0.00,Wunderground v.1.15,2013-06-20 06:38:00,
2013-06-20 02:44:00,61.3,59.9,30.13,SE,127,0.0,0.0,95,0.00,,,0.00,Wunderground v.1.15,2013-06-20 06:44:00,
2013-06-20 02:50:00,61.3,59.9,30.13,SE,127,0.0,0.0,95,0.00,,,0.00,Wunderground v.1.15,2013-06-20 06:50:00,
2013-06-20 02:56:00,61.2,59.8,30.13,SE,127,0.0,0.0,95,0.00,,,0.00,Wunderground v.1.15,2013-06-20 06:56:00,
2013-06-20 03:02:00,61.1,59.7,30.13,SE,127,0.0,0.0,95,0.00,,,0.00,Wunderground v.1.15,2013-06-20 07:02:00,
2013-06-20 03:08:00,60.9,59.5,30.13,SE,127,0.0,0.0,95,0.00,,,0.00,Wunderground v.1.15,2013-06-20 07:08:00,
2013-06-20 03:14:00,60.8,59.4,30.13,SE,127,0.0,0.0,95,0.00,,,0.00,Wunderground v.1.15,2013-06-20 07:14:00,
2013-06-20 03:20:00,60.7,59.3,30.14,SE,127,0.0,0.0,95,0.00,,,0.00,Wunderground v.1.15,2013-06-20 07:20:00,
2013-06-20 03:26:00,60.6,59.2,30.14,SE,127,0.0,0.0,95,0.00,,,0.00,Wunderground v.1.15,2013-06-20 07:26:00,
2013-06-20 03:32:00,60.5,59.1,30.14,SE,127,0.0,0.0,95,0.00,,,0.00,Wunderground v.1.15,2013-06-20 07:32:00,
2013-06-20 03:38:00,60.4,59.0,30.14,SE,127,0.0,0.0,95,0.00,,,0.00,Wunderground v.1.15,2013-06-20 07:38:00,
2013-06-20 03:44:00,60.3,58.9,30.14,SE,127,0.0,0.0,95,0.00,,,0.00,Wunderground v.1.15,2013-06-20 07:44:00,
2013-06-20 03:50:00,60.3,58.9,30.14,SE,127,0.0,0.0,95,0.00,,,0.00,Wunderground v.1.15,2013-06-20 07:50:00,
2013-06-20 03:56:00,60.3,58.9,30.14,SE,127,0.0,0.0,95,0.00,,,0.00,Wunderground v.1.15,2013-06-20 07:56:00,
2013-06-20 04:02:00,60.2,58.8,30.14,SE,127,0.0,0.0,95,0.00,,,0.00,Wunderground v.1.15,2013-06-20 08:02:00,
2013-06-20 04:08:00,60.2,59.1,30.14,SE,127,0.0,0.0,96,0.00,,,0.00,Wunderground v.1.15,2013-06-20 08:08:00,
2013-06-20 04:14:00,60.3,59.2,30.15,SE,127,0.0,0.0,96,0.00,,,0.00,Wunderground v.1.15,2013-06-20 08:14:00,
2013-06-20 04:20:00,60.4,59.3,30.15,SE,127,0.0,0.0,96,0.00,,,0.00,Wunderground v.1.15,2013-06-20 08:20:00,
2013-06-20 04:26:00,60.5,59.4,30.15,SE,127,0.0,0.0,96,0.00,,,0.00,Wunderground v.1.15,2013-06-20 08:26:00,
2013-06-20 04:32:00,60.7,59.6,30.15,SE,127,0.0,0.0,96,0.00,,,0.00,Wunderground v.1.15,2013-06-20 08:32:00,
2013-06-20 04:38:00,60.7,59.6,30.15,SE,127,0.0,0.0,96,0.00,,,0.00,Wunderground v.1.15,2013-06-20 08:38:00,
2013-06-20 04:44:00,60.8,59.7,30.15,SE,127,0.0,0.0,96,0.00,,,0.00,Wunderground v.1.15,2013-06-20 08:44:00,
2013-06-20 04:50:00,60.9,59.8,30.16,SE,127,0.0,0.0,96,0.00,,,0.00,Wunderground v.1.15,2013-06-20 08:50:00,
2013-06-20 04:56:00,60.8,59.7,30.16,SE,127,0.0,0.0,96,0.00,,,0.00,Wunderground v.1.15,2013-06-20 08:56:00,
2013-06-20 05:02:00,60.8,59.7,30.16,SE,127,0.0,0.0,96,0.00,,,0.00,Wunderground v.1.15,2013-06-20 09:02:00,
2013-06-20 05:08:00,60.8,59.7,30.16,SE,127,0.0,0.0,96,0.00,,,0.00,Wunderground v.1.15,2013-06-20 09:08:00,
2013-06-20 05:14:00,60.8,59.7,30.16,SE,127,0.0,0.0,96,0.00,,,0.00,Wunderground v.1.15,2013-06-20 09:14:00,
2013-06-20 05:20:00,60.9,59.8,30.16,SE,127,0.0,0.0,96,0.00,,,0.00,Wunderground v.1.15,2013-06-20 09:20:00,
2013-06-20 05:26:00,61.1,60.0,30.16,SE,127,0.0,1.0,96,0.00,,,0.00,Wunderground v.1.15,2013-06-20 09:26:00,
2013-06-20 05:32:00,61.3,60.2,30.16,SE,127,0.0,0.0,96,0.00,,,0.00,Wunderground v.1.15,2013-06-20 09:32:00,
2013-06-20 05:38:00,61.2,59.8,30.17,SE,127,0.0,0.0,95,0.00,,,0.00,Wunderground v.1.15,2013-06-20 09:38:00,
2013-06-20 05:44:00,61.1,59.7,30.17,SE,127,0.0,0.0,95,0.00,,,0.00,Wunderground v.1.15,2013-06-20 09:44:00,
2013-06-20 05:50:00,61.0,59.6,30.17,SE,127,0.0,0.0,95,0.00,,,0.00,Wunderground v.1.15,2013-06-20 09:50:00,
2013-06-20 05:56:00,60.9,59.5,30.17,SE,127,0.0,0.0,95,0.00,,,0.00,Wunderground v.1.15,2013-06-20 09:56:00,
2013-06-20 06:02:00,60.9,59.5,30.17,SE,127,0.0,0.0,95,0.00,,,0.00,Wunderground v.1.15,2013-06-20 10:02:00,
2013-06-20 06:08:00,60.9,59.8,30.17,SE,127,0.0,0.0,96,0.00,,,0.00,Wunderground v.1.15,2013-06-20 10:08:00,
2013-06-20 06:14:00,60.9,59.8,30.17,SE,127,0.0,0.0,96,0.00,,,0.00,Wunderground v.1.15,2013-06-20 10:14:00,
2013-06-20 06:20:00,60.9,59.8,30.18,SE,127,0.0,0.0,96,0.00,,,0.00,Wunderground v.1.15,2013-06-20 10:20:00,
2013-06-20 06:26:00,60.9,59.8,30.18,SE,127,0.0,0.0,96,0.00,,,0.00,Wunderground v.1.15,2013-06-20 10:26:00,
2013-06-20 06:32:00,61.1,60.0,30.18,SE,127,0.0,0.0,96,0.00,,,0.00,Wunderground v.1.15,2013-06-20 10:32:00,
2013-06-20 06:38:00,61.3,60.2,30.18,SE,127,0.0,0.0,96,0.00,,,0.00,Wunderground v.1.15,2013-06-20 10:38:00,
2013-06-20 06:44:00,61.4,60.2,30.18,SE,127,0.0,0.0,96,0.00,,,0.00,Wunderground v.1.15,2013-06-20 10:44:00,
2013-06-20 06:50:00,61.4,60.0,30.19,SE,127,0.0,0.0,95,0.00,,,0.00,Wunderground v.1.15,2013-06-20 10:50:00,
2013-06-20 06:56:00,61.5,60.1,30.19,SE,127,0.0,0.0,95,0.00,,,0.00,Wunderground v.1.15,2013-06-20 10:56:00,
2013-06-20 07:02:00,61.6,60.2,30.19,SE,127,0.0,0.0,95,0.00,,,0.00,Wunderground v.1.15,2013-06-20 11:02:00,
2013-06-20 07:08:00,61.6,60.2,30.19,SE,127,0.0,0.0,95,0.00,,,0.00,Wunderground v.1.15,2013-06-20 11:08:00,
2013-06-20 07:14:00,61.6,60.2,30.19,SE,127,0.0,0.0,95,0.00,,,0.00,Wunderground v.1.15,2013-06-20 11:14:00,
2013-06-20 07:20:00,61.6,60.2,30.19,SE,127,0.0,0.0,95,0.00,,,0.00,Wunderground v.1.15,2013-06-20 11:20:00,
2013-06-20 07:26:00,61.6,60.2,30.19,SE,127,0.0,0.0,95,0.00,,,0.00,Wunderground v.1.15,2013-06-20 11:26:00,
2013-06-20 07:32:00,61.7,60.3,30.19,SE,127,0.0,0.0,95,0.00,,,0.00,Wunderground v.1.15,2013-06-20 11:32:00,
2013-06-20 07:38:00,61.9,60.5,30.20,SE,127,0.0,0.0,95,0.00,,,0.00,Wunderground v.1.15,2013-06-20 11:38:00,
2013-06-20 07:44:00,62.1,60.7,30.20,SE,127,0.0,0.0,95,0.00,,,0.00,Wunderground v.1.15,2013-06-20 11:44:00,
2013-06-20 07:50:00,62.4,60.7,30.20,SE,127,0.0,0.0,94,0.00,,,0.00,Wunderground v.1.15,2013-06-20 11:50:00,
2013-06-20 07:56:00,62.7,60.9,30.21,SE,127,0.0,0.0,94,0.00,,,0.00,Wunderground v.1.15,2013-06-20 11:56:00,
2013-06-20 08:02:00,63.0,61.2,30.21,SE,127,0.0,0.0,94,0.00,,,0.00,Wunderground v.1.15,2013-06-20 12:02:00,
2013-06-20 08:08:00,63.2,61.4,30.21,SE,127,0.0,0.0,94,0.00,,,0.00,Wunderground v.1.15,2013-06-20 12:08:00,
2013-06-20 08:14:00,63.2,61.4,30.21,SE,127,0.0,0.0,94,0.00,,,0.00,Wunderground v.1.15,2013-06-20 12:14:00,
2013-06-20 08:20:00,63.4,61.6,30.21,SE,127,0.0,0.0,94,0.00,,,0.00,Wunderground v.1.15,2013-06-20 12:20:00,
2013-06-20 08:26:00,63.7,61.9,30.21,SE,127,0.0,0.0,94,0.00,,,0.00,Wunderground v.1.15,2013-06-20 12:26:00,
2013-06-20 08:32:00,64.0,62.2,30.22,SE,127,0.0,0.0,94,0.00,,,0.00,Wunderground v.1.15,2013-06-20 12:32:00,
2013-06-20 08:38:00,64.5,62.4,30.22,SE,127,0.0,0.0,93,0.00,,,0.00,Wunderground v.1.15,2013-06-20 12:38:00,
2013-06-20 08:44:00,65.0,62.9,30.22,SE,127,0.0,0.0,93,0.00,,,0.00,Wunderground v.1.15,2013-06-20 12:44:00,
2013-06-20 08:50:00,65.5,62.8,30.22,SE,127,0.0,0.0,91,0.00,,,0.00,Wunderground v.1.15,2013-06-20 12:50:00,
2013-06-20 08:56:00,65.9,63.2,30.22,SE,127,0.0,2.0,91,0.00,,,0.00,Wunderground v.1.15,2013-06-20 12:56:00,
2013-06-20 09:02:00,66.2,63.5,30.23,SE,127,0.0,0.0,91,0.00,,,0.00,Wunderground v.1.15,2013-06-20 13:02:00,
2013-06-20 09:08:00,66.3,63.3,30.22,SE,127,0.0,0.0,90,0.00,,,0.00,Wunderground v.1.15,2013-06-20 13:08:00,
2013-06-20 09:14:00,66.7,63.7,30.22,SE,127,0.0,0.0,90,0.00,,,0.00,Wunderground v.1.15,2013-06-20 13:14:00,
2013-06-20 09:20:00,67.3,63.9,30.22,SE,127,0.0,0.0,89,0.00,,,0.00,Wunderground v.1.15,2013-06-20 13:20:00,
2013-06-20 09:26:00,67.9,63.9,30.22,SE,128,0.0,3.0,87,0.00,,,0.00,Wunderground v.1.15,2013-06-20 13:26:00,
2013-06-20 09:32:00,68.0,63.3,30.23,SE,128,1.0,2.0,85,0.00,,,0.00,Wunderground v.1.15,2013-06-20 13:32:00,
2013-06-20 09:38:00,67.9,63.6,30.23,SSE,150,1.0,5.0,86,0.00,,,0.00,Wunderground v.1.15,2013-06-20 13:38:00,
2013-06-20 09:44:00,67.9,63.6,30.23,SSE,150,1.0,1.0,86,0.00,,,0.00,Wunderground v.1.15,2013-06-20 13:44:00,
2013-06-20 09:50:00,68.1,63.4,30.23,SSE,150,1.0,2.0,85,0.00,,,0.00,Wunderground v.1.15,2013-06-20 13:50:00,
2013-06-20 09:56:00,67.9,63.6,30.23,SE,146,2.0,2.0,86,0.00,,,0.00,Wunderground v.1.15,2013-06-20 13:56:00,
2013-06-20 10:02:00,68.0,63.7,30.23,SSE,165,2.0,4.0,86,0.00,,,0.00,Wunderground v.1.15,2013-06-20 14:02:00,
2013-06-20 10:08:00,68.1,63.4,30.23,South,173,3.0,4.0,85,0.00,,,0.00,Wunderground v.1.15,2013-06-20 14:08:00,
2013-06-20 10:14:00,68.1,63.4,30.23,SSE,164,3.0,6.0,85,0.00,,,0.00,Wunderground v.1.15,2013-06-20 14:14:00,
2013-06-20 10:20:00,68.1,63.1,30.23,SE,124,3.0,4.0,84,0.00,,,0.00,Wunderground v.1.15,2013-06-20 14:20:00,
2013-06-20 10:26:00,68.1,63.4,30.23,South,171,3.0,6.0,85,0.00,,,0.00,Wunderground v.1.15,2013-06-20 14:26:00,
2013-06-20 10:32:00,68.2,63.2,30.23,SSE,161,2.0,4.0,84,0.00,,,0.00,Wunderground v.1.15,2013-06-20 14:32:00,
2013-06-20 10:38:00,68.2,63.2,30.23,SE,144,2.0,4.0,84,0.00,,,0.00,Wunderground v.1.15,2013-06-20 14:38:00,
2013-06-20 10:44:00,68.3,63.3,30.23,SE,138,2.0,3.0,84,0.00,,,0.00,Wunderground v.1.15,2013-06-20 14:44:00,
2013-06-20 10:50:00,68.5,63.5,30.23,SE,136,1.0,1.0,84,0.00,,,0.00,Wunderground v.1.15,2013-06-20 14:50:00,
2013-06-20 10:56:00,68.8,63.4,30.23,SE,135,2.0,3.0,83,0.00,,,0.00,Wunderground v.1.15,2013-06-20 14:56:00,
2013-06-20 11:02:00,68.7,63.0,30.23,SE,126,2.0,3.0,82,0.00,,,0.00,Wunderground v.1.15,2013-06-20 15:02:00,
2013-06-20 11:08:00,68.5,63.1,30.24,East,92,4.0,4.0,83,0.00,,,0.00,Wunderground v.1.15,2013-06-20 15:08:00,
2013-06-20 11:14:00,68.6,63.6,30.23,East,91,4.0,6.0,84,0.00,,,0.00,Wunderground v.1.15,2013-06-20 15:14:00,
2013-06-20 11:20:00,68.8,62.7,30.24,ESE,108,4.0,4.0,81,0.00,,,0.00,Wunderground v.1.15,2013-06-20 15:20:00,
2013-06-20 11:26:00,69.1,63.4,30.23,ESE,108,2.0,4.0,82,0.00,,,0.00,Wunderground v.1.15,2013-06-20 15:26:00,
2013-06-20 11:32:00,69.8,63.3,30.24,ESE,116,2.0,4.0,80,0.00,,,0.00,Wunderground v.1.15,2013-06-20 15:32:00,
2013-06-20 11:38:00,70.6,64.1,30.23,East,88,3.0,6.0,80,0.00,,,0.00,Wunderground v.1.15,2013-06-20 15:38:00,
2013-06-20 11:44:00,70.5,63.3,30.23,SE,138,4.0,5.0,78,0.00,,,0.00,Wunderground v.1.15,2013-06-20 15:44:00,
2013-06-20 11:50:00,70.6,63.0,30.23,East,96,4.0,4.0,77,0.00,,,0.00,Wunderground v.1.15,2013-06-20 15:50:00,
2013-06-20 11:56:00,71.0,63.1,30.23,ENE,57,4.0,8.0,76,0.00,,,0.00,Wunderground v.1.15,2013-06-20 15:56:00,
2013-06-20 12:02:00,70.8,62.9,30.23,ENE,57,4.0,4.0,76,0.00,,,0.00,Wunderground v.1.15,2013-06-20 16:02:00,
2013-06-20 12:08:00,71.2,63.2,30.23,ESE,118,2.0,4.0,76,0.00,,,0.00,Wunderground v.1.15,2013-06-20 16:08:00,
2013-06-20 12:14:00,71.9,63.9,30.23,ESE,120,2.0,4.0,76,0.00,,,0.00,Wunderground v.1.15,2013-06-20 16:14:00,
2013-06-20 12:20:00,72.2,63.4,30.24,ESE,120,1.0,1.0,74,0.00,,,0.00,Wunderground v.1.15,2013-06-20 16:20:00,
2013-06-20 12:26:00,72.6,63.8,30.23,ESE,120,0.0,1.0,74,0.00,,,0.00,Wunderground v.1.15,2013-06-20 16:26:00,
2013-06-20 12:32:00,73.0,63.8,30.23,ESE,119,0.0,2.0,73,0.00,,,0.00,Wunderground v.1.15,2013-06-20 16:32:00,
2013-06-20 12:38:00,72.6,62.7,30.23,ESE,121,1.0,4.0,71,0.00,,,0.00,Wunderground v.1.15,2013-06-20 16:38:00,
2013-06-20 12:44:00,72.4,63.3,30.24,ESE,121,3.0,7.0,73,0.00,,,0.00,Wunderground v.1.15,2013-06-20 16:44:00,
2013-06-20 12:50:00,72.3,62.4,30.24,ESE,121,3.0,3.0,71,0.00,,,0.00,Wunderground v.1.15,2013-06-20 16:50:00,
2013-06-20 12:56:00,72.6,63.8,30.24,ESE,121,1.0,3.0,74,0.00,,,0.00,Wunderground v.1.15,2013-06-20 16:56:00,
2013-06-20 13:02:00,73.0,63.0,30.23,ESE,120,1.0,4.0,71,0.00,,,0.00,Wunderground v.1.15,2013-06-20 17:02:00,
2013-06-20 13:08:00,73.3,63.3,30.23,ESE,123,2.0,4.0,71,0.00,,,0.00,Wunderground v.1.15,2013-06-20 17:08:00,
2013-06-20 13:14:00,73.6,63.6,30.23,SE,132,2.0,5.0,71,0.00,,,0.00,Wunderground v.1.15,2013-06-20 17:14:00,
2013-06-20 13:20:00,73.5,63.5,30.23,SE,136,3.0,4.0,71,0.00,,,0.00,Wunderground v.1.15,2013-06-20 17:20:00,
2013-06-20 13:26:00,73.8,64.2,30.23,ESE,118,4.0,9.0,72,0.00,,,0.00,Wunderground v.1.15,2013-06-20 17:26:00,
2013-06-20 13:32:00,73.7,63.3,30.23,ESE,119,5.0,8.0,70,0.00,,,0.00,Wunderground v.1.15,2013-06-20 17:32:00,
2013-06-20 13:38:00,74.1,63.7,30.23,ESE,117,3.0,8.0,70,0.00,,,0.00,Wunderground v.1.15,2013-06-20 17:38:00,
2013-06-20 13:44:00,74.6,63.3,30.22,SE,132,5.0,8.0,68,0.00,,,0.00,Wunderground v.1.15,2013-06-20 17:44:00,
2013-06-20 13:50:00,74.3,63.9,30.22,ESE,104,6.0,7.0,70,0.00,,,0.00,Wunderground v.1.15,2013-06-20 17:50:00,
2013-06-20 13:56:00,74.0,63.6,30.22,ESE,121,7.0,10.0,70,0.00,,,0.00,Wunderground v.1.15,2013-06-20 17:56:00,
2013-06-20 14:02:00,74.2,63.8,30.22,SE,140,8.0,15.0,70,0.00,,,0.00,Wunderground v.1.15,2013-06-20 18:02:00,
2013-06-20 14:08:00,74.2,62.5,30.22,ESE,119,8.0,15.0,67,0.00,,,0.00,Wunderground v.1.15,2013-06-20 18:08:00,
2013-06-20 14:14:00,74.9,63.6,30.22,ESE,119,4.0,9.0,68,0.00,,,0.00,Wunderground v.1.15,2013-06-20 18:14:00,
2013-06-20 14:20:00,74.7,63.0,30.22,ESE,119,5.0,5.0,67,0.00,,,0.00,Wunderground v.1.15,2013-06-20 18:20:00,
2013-06-20 14:26:00,75.0,63.7,30.22,ESE,123,6.0,10.0,68,0.00,,,0.00,Wunderground v.1.15,2013-06-20 18:26:00,
2013-06-20 14:32:00,74.4,63.6,30.22,East,97,6.0,7.0,69,0.00,,,0.00,Wunderground v.1.15,2013-06-20 18:32:00,
2013-06-20 14:38:00,74.5,62.8,30.22,ESE,118,5.0,7.0,67,0.00,,,0.00,Wunderground v.1.15,2013-06-20 18:38:00,
2013-06-20 14:44:00,74.0,63.2,30.22,ESE,118,7.0,8.0,69,0.00,,,0.00,Wunderground v.1.15,2013-06-20 18:44:00,
2013-06-20 14:50:00,73.7,62.9,30.22,SE,140,6.0,6.0,69,0.00,,,0.00,Wunderground v.1.15,2013-06-20 18:50:00,
2013-06-20 14:56:00,74.1,64.5,30.21,SE,128,4.0,7.0,72,0.00,,,0.00,Wunderground v.1.15,2013-06-20 18:56:00,
2013-06-20 15:02:00,74.8,64.4,30.21,SE,142,5.0,8.0,70,0.00,,,0.00,Wunderground v.1.15,2013-06-20 19:02:00,
2013-06-20 15:08:00,75.7,65.6,30.21,ESE,123,4.0,8.0,71,0.00,,,0.00,Wunderground v.1.15,2013-06-20 19:08:00,
2013-06-20 15:14:00,75.9,64.2,30.21,SE,128,4.0,10.0,67,0.00,,,0.00,Wunderground v.1.15,2013-06-20 19:14:00,
2013-06-20 15:20:00,75.8,64.9,30.21,ESE,119,5.0,7.0,69,0.00,,,0.00,Wunderground v.1.15,2013-06-20 19:20:00,
2013-06-20 15:26:00,75.5,62.5,30.21,ESE,116,6.0,8.0,64,0.00,,,0.00,Wunderground v.1.15,2013-06-20 19:26:00,
2013-06-20 15:32:00,74.6,62.9,30.21,ESE,115,6.0,6.0,67,0.00,,,0.00,Wunderground v.1.15,2013-06-20 19:32:00,
2013-06-20 15:38:00,74.6,63.8,30.20,ESE,121,6.0,9.0,69,0.00,,,0.00,Wunderground v.1.15,2013-06-20 19:38:00,
2013-06-20 15:44:00,75.3,64.4,30.20,SE,135,7.0,7.0,69,0.00,,,0.00,Wunderground v.1.15,2013-06-20 19:44:00,
2013-06-20 15:50:00,75.8,65.3,30.20,SE,131,5.0,6.0,70,0.00,,,0.00,Wunderground v.1.15,2013-06-20 19:50:00,
2013-06-20 15:56:00,75.8,63.6,30.20,ESE,112,5.0,10.0,66,0.00,,,0.00,Wunderground v.1.15,2013-06-20 19:56:00,
2013-06-20 16:02:00,76.0,64.2,30.19,ESE,123,6.0,8.0,67,0.00,,,0.00,Wunderground v.1.15,2013-06-20 20:02:00,
2013-06-20 16:08:00,75.7,64.0,30.19,SE,141,7.0,8.0,67,0.00,,,0.00,Wunderground v.1.15,2013-06-20 20:08:00,
2013-06-20 16:14:00,75.6,64.3,30.19,SE,132,7.0,10.0,68,0.00,,,0.00,Wunderground v.1.15,2013-06-20 20:14:00,
2013-06-20 16:20:00,74.6,64.6,30.20,ESE,120,8.0,8.0,71,0.00,,,0.00,Wunderground v.1.15,2013-06-20 20:20:00,
2013-06-20 16:26:00,74.9,63.6,30.19,ESE,112,6.0,8.0,68,0.00,,,0.00,Wunderground v.1.15,2013-06-20 20:26:00,
2013-06-20 16:32:00,75.7,64.8,30.19,SSE,153,5.0,6.0,69,0.00,,,0.00,Wunderground v.1.15,2013-06-20 20:32:00,
2013-06-20 16:38:00,75.5,63.8,30.19,SE,132,5.0,11.0,67,0.00,,,0.00,Wunderground v.1.15,2013-06-20 20:38:00,
2013-06-20 16:44:00,74.8,63.5,30.19,SE,129,7.0,10.0,68,0.00,,,0.00,Wunderground v.1.15,2013-06-20 20:44:00,
2013-06-20 16:50:00,74.7,63.0,30.19,SE,128,6.0,6.0,67,0.00,,,0.00,Wunderground v.1.15,2013-06-20 20:50:00,
2013-06-20 16:56:00,75.4,62.4,30.19,SE,130,6.0,9.0,64,0.00,,,0.00,Wunderground v.1.15,2013-06-20 20:56:00,
2013-06-20 17:02:00,75.6,63.0,30.19,ENE,72,6.0,7.0,65,0.00,,,0.00,Wunderground v.1.15,2013-06-20 21:02:00,
2013-06-20 17:08:00,75.4,62.8,30.19,ESE,123,6.0,7.0,65,0.00,,,0.00,Wunderground v.1.15,2013-06-20 21:08:00,
2013-06-20 17:14:00,74.8,63.1,30.19,SE,139,4.0,6.0,67,0.00,,,0.00,Wunderground v.1.15,2013-06-20 21:14:00,
2013-06-20 17:20:00,74.4,62.7,30.19,SSE,155,3.0,4.0,67,0.00,,,0.00,Wunderground v.1.15,2013-06-20 21:20:00,
2013-06-20 17:26:00,74.9,64.5,30.19,SSE,159,3.0,6.0,70,0.00,,,0.00,Wunderground v.1.15,2013-06-20 21:26:00,
2013-06-20 17:32:00,75.4,63.2,30.18,SE,128,6.0,9.0,66,0.00,,,0.00,Wunderground v.1.15,2013-06-20 21:32:00,
2013-06-20 17:38:00,75.2,63.5,30.19,SSE,147,6.0,9.0,67,0.00,,,0.00,Wunderground v.1.15,2013-06-20 21:38:00,
2013-06-20 17:44:00,74.7,63.4,30.19,ESE,110,4.0,7.0,68,0.00,,,0.00,Wunderground v.1.15,2013-06-20 21:44:00,
2013-06-20 17:50:00,74.2,63.8,30.19,SE,134,4.0,4.0,70,0.00,,,0.00,Wunderground v.1.15,2013-06-20 21:50:00,
2013-06-20 17:56:00,74.2,64.2,30.18,SE,135,2.0,4.0,71,0.00,,,0.00,Wunderground v.1.15,2013-06-20 21:56:00,
2013-06-20 18:02:00,74.5,64.5,30.19,SE,134,1.0,2.0,71,0.00,,,0.00,Wunderground v.1.15,2013-06-20 22:02:00,
2013-06-20 18:08:00,74.8,63.9,30.18,SE,136,2.0,6.0,69,0.00,,,0.00,Wunderground v.1.15,2013-06-20 22:08:00,
2013-06-20 18:14:00,74.9,63.6,30.18,SE,142,3.0,5.0,68,0.00,,,0.00,Wunderground v.1.15,2013-06-20 22:14:00,
2013-06-20 18:20:00,75.1,64.2,30.18,SE,145,3.0,6.0,69,0.00,,,0.00,Wunderground v.1.15,2013-06-20 22:20:00,
2013-06-20 18:26:00,75.2,63.9,30.18,SSE,148,5.0,6.0,68,0.00,,,0.00,Wunderground v.1.15,2013-06-20 22:26:00,
2013-06-20 18:32:00,75.2,63.5,30.18,SE,138,4.0,6.0,67,0.00,,,0.00,Wunderground v.1.15,2013-06-20 22:32:00,
2013-06-20 18:38:00,74.9,63.6,30.19,SE,146,5.0,6.0,68,0.00,,,0.00,Wunderground v.1.15,2013-06-20 22:38:00,
2013-06-20 18:44:00,74.7,64.3,30.18,SE,146,3.0,4.0,70,0.00,,,0.00,Wunderground v.1.15,2013-06-20 22:44:00,
2013-06-20 18:50:00,74.2,63.8,30.19,SE,134,4.0,8.0,70,0.00,,,0.00,Wunderground v.1.15,2013-06-20 22:50:00,
2013-06-20 18:56:00,73.6,63.2,30.19,ESE,102,6.0,8.0,70,0.00,,,0.00,Wunderground v.1.15,2013-06-20 22:56:00,
2013-06-20 19:02:00,73.3,63.3,30.19,SE,132,4.0,5.0,71,0.00,,,0.00,Wunderground v.1.15,2013-06-20 23:02:00,
2013-06-20 19:08:00,72.9,63.3,30.19,SE,132,3.0,5.0,72,0.00,,,0.00,Wunderground v.1.15,2013-06-20 23:08:00,
2013-06-20 19:14:00,72.6,63.4,30.19,SE,133,3.0,5.0,73,0.00,,,0.00,Wunderground v.1.15,2013-06-20 23:14:00,
2013-06-20 19:20:00,72.4,63.3,30.19,SE,133,2.0,2.0,73,0.00,,,0.00,Wunderground v.1.15,2013-06-20 23:20:00,
2013-06-20 19:26:00,72.2,63.4,30.19,SSE,149,2.0,2.0,74,0.00,,,0.00,Wunderground v.1.15,2013-06-20 23:26:00,
2013-06-20 19:32:00,72.1,63.4,30.19,SSE,149,1.0,1.0,74,0.00,,,0.00,Wunderground v.1.15,2013-06-20 23:32:00,
2013-06-20 19:38:00,72.0,63.3,30.19,SSE,149,0.0,2.0,74,0.00,,,0.00,Wunderground v.1.15,2013-06-20 23:38:00,
2013-06-20 19:44:00,71.9,63.5,30.19,SSE,149,0.0,1.0,75,0.00,,,0.00,Wunderground v.1.15,2013-06-20 23:44:00,
2013-06-20 19:50:00,71.7,63.7,30.19,SSE,149,0.0,0.0,76,0.00,,,0.00,Wunderground v.1.15,2013-06-20 23:50:00,
2013-06-20 19:56:00,71.6,64.0,30.19,SSE,149,0.0,0.0,77,0.00,,,0.00,Wunderground v.1.15,2013-06-20 23:56:00,
2013-06-20 20:02:00,71.4,63.8,30.19,SSE,149,0.0,0.0,77,0.00,,,0.00,Wunderground v.1.15,2013-06-21 00:02:00,
2013-06-20 20:08:00,71.3,63.7,30.20,SSE,149,0.0,0.0,77,0.00,,,0.00,Wunderground v.1.15,2013-06-21 00:08:00,
2013-06-20 20:14:00,71.2,63.6,30.20,SSE,149,0.0,0.0,77,0.00,,,0.00,Wunderground v.1.15,2013-06-21 00:14:00,
2013-06-20 20:20:00,71.1,63.5,30.20,SSE,149,0.0,0.0,77,0.00,,,0.00,Wunderground v.1.15,2013-06-21 00:20:00,
2013-06-20 20:26:00,71.0,63.4,30.20,SSE,149,0.0,0.0,77,0.00,,,0.00,Wunderground v.1.15,2013-06-21 00:26:00,
2013-06-20 20:32:00,70.9,63.7,30.20,SSE,149,0.0,0.0,78,0.00,,,0.00,Wunderground v.1.15,2013-06-21 00:32:00,
2013-06-20 20:38:00,70.6,63.8,30.20,SSE,149,0.0,0.0,79,0.00,,,0.00,Wunderground v.1.15,2013-06-21 00:38:00,
2013-06-20 20:44:00,70.3,63.8,30.21,SSE,149,0.0,0.0,80,0.00,,,0.00,Wunderground v.1.15,2013-06-21 00:44:00,
2013-06-20 20:50:00,70.0,63.9,30.21,SSE,149,0.0,0.0,81,0.00,,,0.00,Wunderground v.1.15,2013-06-21 00:50:00,
2013-06-20 20:56:00,69.6,63.9,30.21,SSE,149,0.0,0.0,82,0.00,,,0.00,Wunderground v.1.15,2013-06-21 00:56:00,
2013-06-20 21:02:00,69.3,63.9,30.21,SSE,149,0.0,0.0,83,0.00,,,0.00,Wunderground v.1.15,2013-06-21 01:02:00,
2013-06-20 21:08:00,69.0,63.6,30.22,SSE,149,0.0,0.0,83,0.00,,,0.00,Wunderground v.1.15,2013-06-21 01:08:00,
2013-06-20 21:14:00,68.8,63.8,30.22,SSE,149,0.0,0.0,84,0.00,,,0.00,Wunderground v.1.15,2013-06-21 01:14:00,
2013-06-20 21:20:00,68.6,63.6,30.21,SSE,149,0.0,0.0,84,0.00,,,0.00,Wunderground v.1.15,2013-06-21 01:20:00,
2013-06-20 21:26:00,68.3,63.6,30.22,SSE,149,0.0,0.0,85,0.00,,,0.00,Wunderground v.1.15,2013-06-21 01:26:00,
2013-06-20 21:32:00,68.0,63.7,30.22,SSE,149,0.0,0.0,86,0.00,,,0.00,Wunderground v.1.15,2013-06-21 01:32:00,
2013-06-20 21:38:00,67.6,63.3,30.22,SSE,149,0.0,0.0,86,0.00,,,0.00,Wunderground v.1.15,2013-06-21 01:38:00,
2013-06-20 21:44:00,67.5,63.5,30.22,SSE,149,0.0,0.0,87,0.00,,,0.00,Wunderground v.1.15,2013-06-21 01:44:00,
2013-06-20 21:50:00,67.3,63.3,30.22,SSE,149,0.0,0.0,87,0.00,,,0.00,Wunderground v.1.15,2013-06-21 01:50:00,
2013-06-20 21:56:00,66.9,63.2,30.23,SSE,149,0.0,0.0,88,0.00,,,0.00,Wunderground v.1.15,2013-06-21 01:56:00,
2013-06-20 22:02:00,66.6,62.9,30.23,SSE,149,0.0,0.0,88,0.00,,,0.00,Wunderground v.1.15,2013-06-21 02:02:00,
2013-06-20 22:08:00,66.4,62.7,30.23,SSE,149,0.0,0.0,88,0.00,,,0.00,Wunderground v.1.15,2013-06-21 02:08:00,
2013-06-20 22:14:00,66.3,63.0,30.23,SSE,149,0.0,0.0,89,0.00,,,0.00,Wunderground v.1.15,2013-06-21 02:14:00,
2013-06-20 22:20:00,66.2,63.2,30.23,SSE,149,0.0,0.0,90,0.00,,,0.00,Wunderground v.1.15,2013-06-21 02:20:00,
2013-06-20 22:26:00,66.3,63.3,30.23,SSE,149,0.0,0.0,90,0.00,,,0.00,Wunderground v.1.15,2013-06-21 02:26:00,
2013-06-20 22:32:00,66.5,63.5,30.23,SSE,149,0.0,0.0,90,0.00,,,0.00,Wunderground v.1.15,2013-06-21 02:32:00,
2013-06-20 22:38:00,66.4,63.4,30.23,SSE,149,0.0,0.0,90,0.00,,,0.00,Wunderground v.1.15,2013-06-21 02:38:00,
2013-06-20 22:44:00,66.3,63.3,30.24,SSE,149,0.0,0.0,90,0.00,,,0.00,Wunderground v.1.15,2013-06-21 02:44:00,
2013-06-20 22:50:00,66.2,63.2,30.24,SSE,149,0.0,0.0,90,0.00,,,0.00,Wunderground v.1.15,2013-06-21 02:50:00,
2013-06-20 22:56:00,66.0,63.3,30.24,SSE,149,0.0,0.0,91,0.00,,,0.00,Wunderground v.1.15,2013-06-21 02:56:00,
2013-06-20 23:02:00,65.9,63.2,30.24,SSE,149,0.0,0.0,91,0.00,,,0.00,Wunderground v.1.15,2013-06-21 03:02:00,
2013-06-20 23:08:00,65.9,63.2,30.24,SSE,149,0.0,0.0,91,0.00,,,0.00,Wunderground v.1.15,2013-06-21 03:08:00,
2013-06-20 23:14:00,65.8,63.1,30.24,SSE,149,0.0,0.0,91,0.00,,,0.00,Wunderground v.1.15,2013-06-21 03:14:00,
2013-06-20 23:20:00,65.7,63.0,30.24,SSE,149,0.0,0.0,91,0.00,,,0.00,Wunderground v.1.15,2013-06-21 03:20:00,
2013-06-20 23:26:00,65.6,62.9,30.25,SSE,149,0.0,0.0,91,0.00,,,0.00,Wunderground v.1.15,2013-06-21 03:26:00,
2013-06-20 23:32:00,65.4,62.7,30.25,SSE,149,0.0,0.0,91,0.00,,,0.00,Wunderground v.1.15,2013-06-21 03:32:00,
2013-06-20 23:38:00,65.3,62.9,30.25,SSE,149,0.0,0.0,92,0.00,,,0.00,Wunderground v.1.15,2013-06-21 03:38:00,
2013-06-20 23:44:00,65.2,62.8,30.25,SSE,149,0.0,0.0,92,0.00,,,0.00,Wunderground v.1.15,2013-06-21 03:44:00,
2013-06-20 23:50:00,65.2,62.8,30.25,SSE,149,0.0,0.0,92,0.00,,,0.00,Wunderground v.1.15,2013-06-21 03:50:00,
2013-06-20 23:56:00,65.1,62.7,30.25,SSE,149,0.0,0.0,92,0.00,,,0.00,Wunderground v.1.15,2013-06-21 03:56:00,